| time (UTC) | temp F | wind direction | speed knots | gust knots | rain 1hr in | rain 24hr in | rain mn in | humidity % | barometer mb |
| 20260507094212 | 51 | 180 | 0.9 | 1.7 | 0.00 | 0.00 | 0.00 | 90 | 1012.2 |
| 20260507092712 | 51 | 225 | 0.0 | 0.9 | 0.00 | 0.00 | 0.00 | 90 | 1012.2 |
| 20260507091212 | 51 | 203 | 0.9 | 1.7 | 0.00 | 0.00 | 0.00 | 90 | 1012.2 |
| 20260507085712 | 51 | 225 | 1.7 | 1.7 | 0.00 | 0.00 | 0.00 | 91 | 1012.5 |
| 20260507084212 | 51 | 225 | 0.0 | 0.9 | 0.00 | 0.00 | 0.00 | 91 | 1012.5 |
| 20260507082712 | 51 | 180 | 0.0 | 0.0 | 0.00 | 0.00 | 0.00 | 91 | 1012.5 |
| 20260507081212 | 51 | 180 | 4.3 | 5.2 | 0.00 | 0.00 | 0.00 | 91 | 1012.2 |
| 20260507075712 | 52 | 203 | 0.9 | 1.7 | 0.00 | 0.00 | 0.00 | 92 | 1011.8 |
| 20260507074212 | 52 | 203 | 1.7 | 1.7 | 0.00 | 0.00 | 0.00 | 92 | 1012.2 |
| 20260507072713 | 52 | 180 | 0.9 | 1.7 | 0.00 | 0.00 | 0.00 | 92 | 1011.8 |
| 20260507071213 | 52 | 203 | 0.9 | 1.7 | 0.00 | 0.00 | 0.00 | 92 | 1011.8 |
| 20260507065713 | 52 | 180 | 1.7 | 1.7 | 0.00 | 0.00 | 0.00 | 91 | 1011.8 |
| 20260507064213 | 52 | 203 | 0.9 | 1.7 | 0.00 | 0.00 | 0.00 | 91 | 1012.2 |
| 20260507062713 | 52 | 180 | 0.0 | 0.0 | 0.00 | 0.00 | 0.00 | 91 | 1011.8 |
| 20260507061213 | 52 | 180 | 0.0 | 0.0 | 0.00 | 0.00 | 0.00 | 90 | 1012.2 |
| 20260507055713 | 53 | 225 | 0.0 | 0.0 | 0.00 | 0.00 | 0.00 | 90 | 1012.2 |
| 20260507054213 | 53 | 180 | 0.0 | 0.0 | 0.00 | 0.00 | 0.00 | 89 | 1011.8 |
| 20260507052713 | 54 | 203 | 0.9 | 1.7 | 0.00 | 0.00 | 0.00 | 88 | 1012.2 |
| 20260507051213 | 54 | 248 | 1.7 | 1.7 | 0.00 | 0.00 | 0.00 | 88 | 1012.2 |
| 20260507045713 | 54 | 225 | 2.6 | 4.3 | 0.00 | 0.00 | 0.00 | 86 | 1011.8 |
| 20260507044213 | 54 | 180 | 0.9 | 1.7 | 0.00 | 0.00 | 0.00 | 86 | 1011.8 |
| 20260507042713 | 54 | 203 | 1.7 | 1.7 | 0.00 | 0.00 | 0.00 | 85 | 1012.2 |
| 20260507041213 | 55 | 203 | 1.7 | 1.7 | 0.00 | 0.00 | 0.00 | 84 | 1011.8 |
| 20260507035713 | 55 | 225 | 1.7 | 1.7 | 0.00 | 0.00 | 0.00 | 83 | 1012.2 |
| 20260507034212 | 55 | 180 | 1.7 | 1.7 | 0.00 | 0.00 | 0.00 | 82 | 1011.8 |
| 20260507032712 | 55 | 203 | 0.9 | 1.7 | 0.00 | 0.00 | 0.00 | 82 | 1011.8 |
| 20260507031212 | 55 | 180 | 1.7 | 2.6 | 0.00 | 0.00 | 0.00 | 82 | 1011.8 |
| 20260507025712 | 56 | 225 | 1.7 | 1.7 | 0.00 | 0.00 | 0.00 | 82 | 1011.5 |
| 20260507024212 | 56 | 203 | 0.0 | 0.0 | 0.00 | 0.00 | 0.00 | 82 | 1011.2 |
| 20260507022712 | 56 | 180 | 1.7 | 1.7 | 0.00 | 0.00 | 0.00 | 82 | 1011.8 |
| 20260507021212 | 56 | 158 | 1.7 | 1.7 | 0.00 | 0.00 | 0.00 | 81 | 1011.2 |
| 20260507015712 | 56 | 158 | 0.9 | 1.7 | 0.00 | 0.00 | 0.00 | 82 | 1011.5 |
| 20260507014212 | 56 | 225 | 1.7 | 2.6 | 0.00 | 0.00 | 0.00 | 81 | 1011.2 |
| 20260507012712 | 56 | 203 | 0.9 | 1.7 | 0.00 | 0.00 | 0.00 | 81 | 1011.2 |
| 20260507011212 | 56 | 225 | 2.6 | 4.3 | 0.00 | 0.00 | 0.00 | 81 | 1011.5 |
| 20260507005712 | 56 | 203 | 0.9 | 1.7 | 0.00 | 0.00 | 0.00 | 81 | 1011.5 |
| 20260507004212 | 57 | 158 | 2.6 | 4.3 | 0.00 | 0.00 | 0.00 | 80 | 1011.8 |
| 20260507002712 | 56 | 203 | 3.5 | 4.3 | 0.00 | 0.00 | 0.00 | 80 | 1011.5 |
| 20260507001212 | 57 | 203 | 3.5 | 4.3 | 0.00 | 0.00 | 0.00 | 80 | 1011.5 |
| 20260506235712 | 56 | 225 | 0.9 | 1.7 | 0.00 | 0.00 | 0.00 | 81 | 1011.5 |
| 20260506234212 | 56 | 203 | 1.7 | 2.6 | 0.00 | 0.00 | 0.00 | 79 | 1011.8 |
| 20260506232712 | 56 | 225 | 1.7 | 2.6 | 0.00 | 0.00 | 0.00 | 79 | 1011.8 |
| 20260506231212 | 56 | 203 | 2.6 | 2.6 | 0.00 | 0.00 | 0.00 | 79 | 1011.8 |
| 20260506225712 | 57 | 180 | 2.6 | 2.6 | 0.00 | 0.00 | 0.00 | 77 | 1011.8 |
| 20260506224212 | 57 | 225 | 1.7 | 2.6 | 0.00 | 0.00 | 0.00 | 77 | 1011.8 |
| 20260506222712 | 57 | 225 | 1.7 | 1.7 | 0.00 | 0.00 | 0.00 | 76 | 1011.5 |
| 20260506221212 | 57 | 225 | 0.9 | 1.7 | 0.00 | 0.00 | 0.00 | 74 | 1011.8 |
| 20260506215712 | 57 | 180 | 0.9 | 1.7 | 0.00 | 0.00 | 0.00 | 73 | 1011.8 |
| 20260506214212 | 57 | 158 | 6.1 | 7.0 | 0.00 | 0.00 | 0.00 | 74 | 1011.8 |
| 20260506212712 | 57 | 248 | 2.6 | 3.5 | 0.00 | 0.00 | 0.00 | 74 | 1011.8 |
| 20260506211212 | 57 | 225 | 2.6 | 3.5 | 0.00 | 0.00 | 0.00 | 74 | 1012.2 |
| 20260506205712 | 57 | 203 | 4.3 | 5.2 | 0.00 | 0.00 | 0.00 | 73 | 1011.8 |
| 20260506204212 | 57 | 225 | 2.6 | 3.5 | 0.00 | 0.00 | 0.00 | 73 | 1011.8 |
| 20260506202712 | 57 | 248 | 1.7 | 1.7 | 0.00 | 0.00 | 0.00 | 75 | 1011.8 |
| 20260506201212 | 57 | 225 | 3.5 | 4.3 | 0.00 | 0.00 | 0.00 | 75 | 1011.8 |
| 20260506195712 | 57 | 225 | 2.6 | 2.6 | 0.00 | 0.00 | 0.00 | 77 | 1011.5 |
| 20260506194212 | 57 | 248 | 1.7 | 1.7 | 0.00 | 0.00 | 0.00 | 77 | 1011.5 |
| 20260506192712 | 56 | 225 | 3.5 | 4.3 | 0.00 | 0.00 | 0.00 | 78 | 1011.8 |
| 20260506191212 | 56 | 225 | 3.5 | 4.3 | 0.00 | 0.00 | 0.00 | 80 | 1011.5 |
| 20260506185712 | 55 | 225 | 3.5 | 5.2 | 0.00 | 0.00 | 0.00 | 81 | 1011.5 |
| 20260506184212 | 54 | 180 | 4.3 | 4.3 | 0.00 | 0.00 | 0.00 | 83 | 1011.5 |
| 20260506182712 | 54 | 180 | 3.5 | 4.3 | 0.00 | 0.00 | 0.00 | 86 | 1011.5 |
| 20260506181212 | 54 | 203 | 3.5 | 4.3 | 0.00 | 0.00 | 0.00 | 88 | 1011.8 |
| 20260506175712 | 54 | 225 | 1.7 | 2.6 | 0.00 | 0.00 | 0.00 | 88 | 1011.2 |
| 20260506174212 | 54 | 180 | 0.9 | 1.7 | 0.00 | 0.00 | 0.00 | 90 | 1011.2 |
| 20260506172712 | 53 | 203 | 0.9 | 1.7 | 0.00 | 0.00 | 0.00 | 91 | 1011.5 |
| 20260506171212 | 53 | 135 | 2.6 | 4.3 | 0.00 | 0.00 | 0.00 | 90 | 1011.2 |
| 20260506165712 | 53 | 158 | 3.5 | 4.3 | 0.00 | 0.00 | 0.00 | 89 | 1011.2 |
| 20260506164212 | 53 | 225 | 0.9 | 1.7 | 0.00 | 0.00 | 0.00 | 90 | 1011.2 |
| 20260506162712 | 53 | 203 | 3.5 | 4.3 | 0.00 | 0.00 | 0.00 | 91 | 1011.5 |
| 20260506161212 | 53 | 180 | 2.6 | 3.5 | 0.00 | 0.00 | 0.00 | 93 | 1010.8 |
| 20260506155712 | 52 | 180 | 3.5 | 4.3 | 0.00 | 0.00 | 0.00 | 95 | 1010.8 |
| 20260506152713 | 51 | 203 | 2.6 | 3.5 | 0.00 | 0.00 | 0.00 | 96 | 1010.8 |
| 20260506151213 | 52 | 225 | 0.0 | 0.0 | 0.00 | 0.00 | 0.00 | 95 | 1011.2 |
| 20260506145713 | 52 | 203 | 2.6 | 4.3 | 0.00 | 0.00 | 0.00 | 95 | 1010.5 |
| 20260506144213 | 52 | 248 | 0.0 | 0.0 | 0.00 | 0.00 | 0.00 | 95 | 1010.5 |
| 20260506142713 | 52 | 203 | 1.7 | 1.7 | 0.00 | 0.00 | 0.00 | 95 | 1010.8 |
| 20260506141213 | 51 | 180 | 3.5 | 4.3 | 0.00 | 0.00 | 0.00 | 94 | 1010.8 |
| 20260506135713 | 52 | 225 | 0.0 | 0.0 | 0.00 | 0.00 | 0.00 | 94 | 1010.5 |
| 20260506134213 | 52 | 225 | 0.0 | 0.9 | 0.00 | 0.00 | 0.00 | 94 | 1010.5 |
| 20260506132713 | 52 | 180 | 0.9 | 1.7 | 0.00 | 0.00 | 0.00 | 93 | 1010.2 |
| 20260506131213 | 52 | 158 | 0.9 | 1.7 | 0.00 | 0.00 | 0.00 | 93 | 1010.2 |
| 20260506125713 | 52 | 225 | 0.9 | 1.7 | 0.00 | 0.00 | 0.00 | 92 | 1010.2 |
| 20260506124213 | 53 | 203 | 0.0 | 0.0 | 0.00 | 0.00 | 0.00 | 92 | 1010.2 |
| 20260506122713 | 52 | 203 | 2.6 | 2.6 | 0.00 | 0.00 | 0.00 | 92 | 1009.8 |
| 20260506121213 | 52 | 180 | 1.7 | 1.7 | 0.00 | 0.00 | 0.00 | 92 | 1009.5 |
| 20260506115713 | 52 | 180 | 3.5 | 4.3 | 0.00 | 0.00 | 0.00 | 92 | 1009.5 |
| 20260506114213 | 52 | 248 | 0.9 | 1.7 | 0.00 | 0.00 | 0.00 | 92 | 1009.5 |
| 20260506112712 | 52 | 203 | 1.7 | 2.6 | 0.00 | 0.00 | 0.00 | 92 | 1009.5 |
| 20260506111212 | 52 | 180 | 2.6 | 3.5 | 0.00 | 0.00 | 0.00 | 92 | 1009.1 |
| 20260506105712 | 52 | 203 | 0.9 | 1.7 | 0.00 | 0.00 | 0.00 | 92 | 1009.1 |
| 20260506104212 | 52 | 225 | 2.6 | 4.3 | 0.00 | 0.00 | 0.00 | 92 | 1009.1 |
| 20260506102712 | 52 | 203 | 0.9 | 1.7 | 0.00 | 0.00 | 0.00 | 92 | 1009.1 |
| 20260506101212 | 52 | 180 | 4.3 | 6.1 | 0.00 | 0.00 | 0.00 | 92 | 1009.5 |
| 20260506095713 | 52 | 158 | 0.9 | 1.7 | 0.00 | 0.00 | 0.00 | 92 | 1009.1 |